Anderson, Alaska
Current Conditions -  °F | °C
As of 11:53 AM on Friday 24 Oct 2014 (Local Time) from PANN Reporting Station
Broken Clouds Broken Clouds  
Wind Chill: 17°   Ceiling: 9000
Heat Index: 23°   Visibility: 10mi
Dew Point: 18°   Wind: 5mph
Humidity: 81%   Direction: 120°ESE
Pressure: 29.84"   Gusts: NA
Location:  64.34°N, 149.19°W
Report Text: PANN 241953Z AUTO 12004KT 10SM BKN090 M05/M08 A2984 RMK AO2 SLP115 T10501078 TSNO
Loading
Personal Weather Stations






























Interactive Weather Map New forecast layout! Learn more

10-Day Weather Forecast

Advertisements
Track Severe Weather on mobile